createdAt,value
2022-11-09T00:00:41.808Z,97614.94
2022-11-09T00:03:08.297Z,97622.13
2022-11-09T00:05:34.797Z,97625.56
2022-11-09T00:08:01.340Z,97624.25
2022-11-09T00:10:27.845Z,97625.88
2022-11-09T00:12:54.335Z,97630.66
2022-11-09T00:15:20.866Z,97622.66
2022-11-09T00:17:47.351Z,97620.84
2022-11-09T00:20:13.816Z,97620.31
2022-11-09T00:22:40.301Z,97623.78
2022-11-09T00:25:07.267Z,97616.88
2022-11-09T00:27:33.747Z,97620.31
2022-11-09T00:30:00.203Z,97621.38
2022-11-09T00:32:28.005Z,97617.91
2022-11-09T00:34:54.682Z,97617.41
2022-11-09T00:37:21.193Z,97616.63
2022-11-09T00:39:47.735Z,97612.63
2022-11-09T00:42:14.248Z,97612.38
2022-11-09T00:44:40.705Z,97609.19
2022-11-09T00:47:07.185Z,97611.84
2022-11-09T00:49:33.643Z,97610.25
2022-11-09T00:52:00.125Z,97619.03
2022-11-09T00:54:26.579Z,97620.63
2022-11-09T00:56:53.226Z,97612.91
2022-11-09T00:59:19.747Z,97605.72
2022-11-09T01:01:46.220Z,97606.56
2022-11-09T01:04:12.690Z,97614.00
2022-11-09T01:06:39.248Z,97616.66
2022-11-09T01:09:05.755Z,97628.09
2022-11-09T01:11:32.247Z,97617.75
2022-11-09T01:13:59.285Z,97623.06
2022-11-09T01:16:25.776Z,97629.72
2022-11-09T01:18:53.567Z,97619.06
2022-11-09T01:21:20.087Z,97617.50
2022-11-09T01:23:46.558Z,97621.47
2022-11-09T01:26:13.696Z,97624.44
2022-11-09T01:28:40.295Z,97626.81
2022-11-09T01:31:15.052Z,97615.91
2022-11-09T01:33:41.705Z,97623.63
2022-11-09T01:36:14.448Z,97607.41
2022-11-09T01:38:40.985Z,97625.75
2022-11-09T01:41:07.850Z,97616.97
2022-11-09T01:43:34.425Z,97616.72
2022-11-09T01:46:20.870Z,97622.06
2022-11-09T01:48:55.756Z,97620.44
2022-11-09T01:51:24.799Z,97624.72
2022-11-09T01:53:52.882Z,97609.78
2022-11-09T01:56:19.359Z,97607.91
2022-11-09T01:59:13.849Z,97602.88
2022-11-09T02:01:40.450Z,97602.88
2022-11-09T02:04:23.857Z,97600.50
2022-11-09T02:06:50.448Z,97593.31
2022-11-09T02:09:24.206Z,97594.41
2022-11-09T02:11:50.702Z,97609.28
2022-11-09T02:14:17.161Z,97605.03
2022-11-09T02:16:43.729Z,97602.38
2022-11-09T02:19:10.261Z,97601.59
2022-11-09T02:21:36.751Z,97596.81
2022-11-09T02:24:03.252Z,97595.44
2022-11-09T02:26:31.569Z,97592.00
2022-11-09T02:28:58.491Z,97602.13
2022-11-09T02:31:25.987Z,97601.06
2022-11-09T02:33:56.221Z,97592.56
2022-11-09T02:36:23.609Z,97589.38
2022-11-09T02:38:51.332Z,97600.00
2022-11-09T02:41:17.830Z,97594.69
2022-11-09T02:43:44.299Z,97582.47
2022-11-09T02:46:10.773Z,97601.09
2022-11-09T02:48:37.239Z,97589.94
2022-11-09T02:51:03.951Z,97578.50
2022-11-09T02:53:30.493Z,97580.34
2022-11-09T02:55:56.941Z,97588.88
2022-11-09T02:58:23.414Z,97577.97
2022-11-09T03:00:49.957Z,97576.09
2022-11-09T03:03:17.140Z,97580.63
2022-11-09T03:05:44.188Z,97589.56
2022-11-09T03:08:10.680Z,97581.78
2022-11-09T03:10:37.531Z,97584.06
2022-11-09T03:13:04.010Z,97587.19
2022-11-09T03:15:30.839Z,97593.25
2022-11-09T03:17:57.292Z,97584.44
2022-11-09T03:20:23.745Z,97590.00
2022-11-09T03:22:50.226Z,97590.28
2022-11-09T03:25:16.765Z,97590.78
2022-11-09T03:27:43.598Z,97585.19
2022-11-09T03:30:10.469Z,97585.97
2022-11-09T03:32:36.957Z,97582.53
2022-11-09T03:35:03.497Z,97595.03
2022-11-09T03:37:30.052Z,97584.94
2022-11-09T03:39:56.553Z,97599.91
2022-11-09T03:42:23.012Z,97592.22
2022-11-09T03:44:49.486Z,97593.22
2022-11-09T03:47:16.296Z,97593.69
2022-11-09T03:49:42.758Z,97592.06
2022-11-09T03:52:09.236Z,97595.75
2022-11-09T03:54:35.812Z,97601.31
2022-11-09T03:57:02.907Z,97603.69
2022-11-09T03:59:29.777Z,97607.16
2022-11-09T04:01:56.555Z,97605.53
2022-11-09T04:04:25.780Z,97603.16
2022-11-09T04:06:52.357Z,97600.97
2022-11-09T04:09:22.729Z,97594.06
2022-11-09T04:11:49.198Z,97600.97
2022-11-09T04:14:15.666Z,97599.09
2022-11-09T04:16:42.190Z,97593.28
2022-11-09T04:19:08.722Z,97595.69
2022-11-09T04:21:35.254Z,97582.13
2022-11-09T04:24:01.781Z,97590.69
2022-11-09T04:26:28.291Z,97577.66
2022-11-09T04:28:54.745Z,97581.41
2022-11-09T04:31:24.280Z,97588.59
2022-11-09T04:33:54.393Z,97590.47
2022-11-09T04:36:20.861Z,97590.47
2022-11-09T04:38:47.634Z,97581.94
2022-11-09T04:41:14.164Z,97591.81
2022-11-09T04:43:40.738Z,97592.09
2022-11-09T04:46:07.269Z,97585.44
2022-11-09T04:48:33.793Z,97586.53
2022-11-09T04:51:04.050Z,97588.69
2022-11-09T04:53:30.514Z,97588.69
2022-11-09T04:55:57.185Z,97585.25
2022-11-09T04:58:25.109Z,97592.66
2022-11-09T05:00:52.926Z,97592.94
2022-11-09T05:03:19.764Z,97594.28
2022-11-09T05:05:48.516Z,97592.72
2022-11-09T05:08:15.262Z,97610.28
2022-11-09T05:10:41.751Z,97606.03
2022-11-09T05:13:09.639Z,97590.84
2022-11-09T05:15:36.309Z,97590.34
2022-11-09T05:18:03.156Z,97602.28
2022-11-09T05:20:29.719Z,97607.59
2022-11-09T05:23:16.072Z,97606.03
2022-11-09T05:25:42.572Z,97607.59
2022-11-09T05:28:09.796Z,97607.09
2022-11-09T05:30:36.357Z,97596.16
2022-11-09T05:33:02.889Z,97601.78
2022-11-09T05:35:29.410Z,97594.03
2022-11-09T05:37:55.867Z,97602.84
2022-11-09T05:40:22.399Z,97592.72
2022-11-09T05:42:48.935Z,97594.59
2022-11-09T05:48:03.718Z,97607.59
2022-11-09T05:50:30.207Z,97598.81
2022-11-09T05:52:59.090Z,97596.97
2022-11-09T05:55:25.560Z,97590.34
2022-11-09T05:57:52.101Z,97593.25
2022-11-09T06:00:18.852Z,97587.13
2022-11-09T06:02:45.307Z,97590.88
2022-11-09T06:05:11.857Z,97592.75
2022-11-09T06:07:38.386Z,97590.09
2022-11-09T06:10:05.272Z,97587.44
2022-11-09T06:12:31.776Z,97585.31
2022-11-09T06:14:58.311Z,97587.97
2022-11-09T06:17:24.764Z,97594.09
2022-11-09T06:19:51.477Z,97579.19
2022-11-09T06:22:17.952Z,97581.56
2022-11-09T06:24:44.418Z,97583.19
2022-11-09T06:27:10.875Z,97582.88
2022-11-09T06:29:37.414Z,97590.59
2022-11-09T06:32:03.963Z,97593.78
2022-11-09T06:34:30.669Z,97600.41
2022-11-09T06:36:57.194Z,97604.41
2022-11-09T06:39:23.990Z,97614.75
2022-11-09T06:41:50.450Z,97610.78
2022-11-09T06:44:16.963Z,97619.28
2022-11-09T06:46:43.438Z,97619.81
2022-11-09T06:49:11.130Z,97617.16
2022-11-09T06:51:37.609Z,97620.59
2022-11-09T06:54:04.127Z,97620.59
2022-11-09T06:56:31.292Z,97633.94
2022-11-09T06:58:57.824Z,97634.72
2022-11-09T07:01:29.562Z,97630.19
2022-11-09T07:03:56.335Z,97642.72
2022-11-09T07:06:23.046Z,97642.72
2022-11-09T07:08:49.541Z,97642.72
2022-11-09T07:11:16.318Z,97644.06
2022-11-09T07:13:42.794Z,97652.56
2022-11-09T07:16:09.333Z,97648.31
2022-11-09T07:18:35.859Z,97645.94
2022-11-09T07:21:04.540Z,97649.66
2022-11-09T07:23:32.864Z,97649.97
2022-11-09T07:25:59.675Z,97648.59
2022-11-09T07:28:27.436Z,97653.13
2022-11-09T07:30:53.917Z,97654.47
2022-11-09T07:33:20.595Z,97658.75
2022-11-09T07:35:47.073Z,97656.88
2022-11-09T07:38:15.653Z,97658.22
2022-11-09T07:40:42.359Z,97656.34
2022-11-09T07:43:09.753Z,97657.97
2022-11-09T07:45:36.389Z,97662.19
2022-11-09T07:48:04.842Z,97668.31
2022-11-09T07:50:31.659Z,97658.47
2022-11-09T07:52:58.819Z,97663.50
2022-11-09T07:55:25.449Z,97671.25
2022-11-09T07:57:59.017Z,97675.81
2022-11-09T08:00:29.567Z,97679.25
2022-11-09T08:02:56.137Z,97690.41
2022-11-09T08:05:22.727Z,97688.84
2022-11-09T08:07:51.213Z,97702.16
2022-11-09T08:10:17.697Z,97696.81
2022-11-09T08:12:44.158Z,97703.72
2022-11-09T08:15:10.978Z,97694.94
2022-11-09T08:17:37.450Z,97693.06
2022-11-09T08:20:04.109Z,97704.03
2022-11-09T08:22:30.568Z,97691.22
2022-11-09T08:24:57.027Z,97692.56
2022-11-09T08:27:23.507Z,97694.97
2022-11-09T08:29:49.962Z,97693.38
2022-11-09T08:32:16.414Z,97690.72
2022-11-09T08:34:47.027Z,97688.03
2022-11-09T08:37:13.522Z,97690.13
2022-11-09T08:39:39.973Z,97697.34
2022-11-09T08:42:06.515Z,97694.97
2022-11-09T08:44:32.990Z,97710.13
2022-11-09T08:46:59.487Z,97702.44
2022-11-09T08:49:27.104Z,97709.34
2022-11-09T08:51:53.572Z,97712.81
2022-11-09T08:54:20.042Z,97706.44
2022-11-09T08:56:46.525Z,97706.44
2022-11-09T08:59:13.046Z,97696.59
2022-11-09T09:01:39.603Z,97697.72
2022-11-09T09:04:06.108Z,97692.94
2022-11-09T09:06:32.667Z,97704.38
2022-11-09T09:08:59.216Z,97694.53
2022-11-09T09:11:25.723Z,97701.72
2022-11-09T09:13:52.191Z,97701.72
2022-11-09T09:16:18.665Z,97703.59
2022-11-09T09:18:47.106Z,97710.50
2022-11-09T09:21:13.635Z,97716.13
2022-11-09T09:23:40.104Z,97716.66
2022-11-09T09:26:06.599Z,97720.91
2022-11-09T09:28:33.112Z,97713.41
2022-11-09T09:31:00.016Z,97720.31
2022-11-09T09:33:26.885Z,97720.63
2022-11-09T09:35:56.372Z,97732.56
2022-11-09T09:38:23.246Z,97727.53
2022-11-09T09:40:59.604Z,97748.81
2022-11-09T09:43:46.770Z,97752.56
2022-11-09T09:46:43.696Z,97747.53
2022-11-09T09:49:15.680Z,97744.03
2022-11-09T09:51:45.545Z,97746.69
2022-11-09T09:54:15.126Z,97743.53
2022-11-09T09:56:43.302Z,97742.75
2022-11-09T09:59:09.619Z,97746.47
2022-11-09T10:01:41.444Z,97737.41
2022-11-09T10:04:14.553Z,97731.00
2022-11-09T10:06:44.020Z,97733.69
2022-11-09T10:09:27.560Z,97729.69
2022-11-09T10:12:02.149Z,97722.72
2022-11-09T10:14:50.131Z,97711.75
2022-11-09T10:17:34.790Z,97712.28
2022-11-09T10:20:19.446Z,97712.56
2022-11-09T10:23:05.191Z,97718.16
2022-11-09T10:25:57.694Z,97714.69
2022-11-09T10:28:19.069Z,97721.31
2022-11-09T10:30:45.792Z,97721.25
2022-11-09T10:33:15.757Z,97720.41
2022-11-09T10:35:47.582Z,97714.53
2022-11-09T10:38:17.253Z,97718.22
2022-11-09T10:40:49.463Z,97709.16
2022-11-09T10:43:15.955Z,97711.72
2022-11-09T10:45:43.519Z,97712.50
2022-11-09T10:48:12.303Z,97722.09
2022-11-09T10:50:48.434Z,97718.38
2022-11-09T10:53:24.800Z,97708.28
2022-11-09T10:55:56.980Z,97713.09
2022-11-09T10:58:39.266Z,97721.41
2022-11-09T11:01:12.879Z,97723.31
2022-11-09T11:03:39.898Z,97720.69
2022-11-09T11:06:10.361Z,97719.38
2022-11-09T11:08:39.030Z,97713.22
2022-11-09T11:11:37.848Z,97710.06
2022-11-09T11:14:23.149Z,97709.00
2022-11-09T11:16:51.811Z,97719.66
2022-11-09T11:19:34.861Z,97716.16
2022-11-09T11:22:19.306Z,97716.66
2022-11-09T11:24:58.544Z,97720.34
2022-11-09T11:27:24.949Z,97713.91
2022-11-09T11:29:55.538Z,97707.78
2022-11-09T11:32:23.346Z,97705.06
2022-11-09T11:35:05.492Z,97713.56
2022-11-09T11:37:47.218Z,97713.00
2022-11-09T11:40:30.459Z,97709.56
2022-11-09T11:43:15.153Z,97714.84
2022-11-09T11:45:44.509Z,97709.50
2022-11-09T11:48:21.985Z,97705.25
2022-11-09T11:51:07.531Z,97709.50
2022-11-09T11:53:56.843Z,97715.03
2022-11-09T11:56:27.734Z,97718.44
2022-11-09T11:59:09.260Z,97726.94
2022-11-09T12:01:39.597Z,97732.06
2022-11-09T12:04:30.900Z,97726.44
2022-11-09T12:07:19.915Z,97723.78
2022-11-09T12:09:50.465Z,97717.28
2022-11-09T12:12:26.011Z,97726.81
2022-11-09T12:14:58.534Z,97713.53
2022-11-09T12:17:27.477Z,97719.44
2022-11-09T12:20:12.744Z,97727.19
2022-11-09T12:22:39.080Z,97717.31
2022-11-09T12:25:19.477Z,97725.31
2022-11-09T12:28:04.561Z,97726.06
2022-11-09T12:30:46.131Z,97713.25
2022-11-09T12:33:16.656Z,97718.06
2022-11-09T12:35:51.414Z,97720.75
2022-11-09T12:38:34.932Z,97711.06
2022-11-09T12:41:06.205Z,97706.88
2022-11-09T12:43:41.192Z,97706.09
2022-11-09T12:46:09.766Z,97708.75
2022-11-09T12:48:36.296Z,97707.34
2022-11-09T12:51:04.164Z,97704.63
2022-11-09T12:53:33.820Z,97704.28
2022-11-09T12:56:20.683Z,97711.72
2022-11-09T12:58:47.169Z,97704.00
2022-11-09T13:01:25.783Z,97709.06
2022-11-09T13:03:56.732Z,97709.91
2022-11-09T13:06:27.748Z,97711.00
2022-11-09T13:09:02.573Z,97706.94
2022-11-09T13:11:38.442Z,97706.16
2022-11-09T13:14:23.205Z,97717.91
2022-11-09T13:16:50.471Z,97715.75
2022-11-09T13:19:35.079Z,97718.69
2022-11-09T13:22:13.667Z,97721.94
2022-11-09T13:25:02.826Z,97719.84
2022-11-09T13:27:41.447Z,97712.38
2022-11-09T13:30:30.741Z,97724.69
2022-11-09T13:33:06.140Z,97727.13
2022-11-09T13:35:41.937Z,97722.59
2022-11-09T13:38:18.037Z,97738.59
2022-11-09T13:40:45.392Z,97733.56
2022-11-09T13:43:11.731Z,97740.47
2022-11-09T13:46:08.523Z,97738.66
2022-11-09T13:48:47.879Z,97745.31
2022-11-09T13:51:15.558Z,97735.19
2022-11-09T13:53:52.890Z,97745.63
2022-11-09T13:56:37.447Z,97747.78
2022-11-09T13:59:34.644Z,97757.66
2022-11-09T14:02:01.532Z,97749.97
2022-11-09T14:04:28.842Z,97752.13
2022-11-09T14:07:12.297Z,97751.38
2022-11-09T14:09:56.229Z,97750.84
2022-11-09T14:12:45.373Z,97756.69
2022-11-09T14:15:51.198Z,97755.91
2022-11-09T14:18:36.971Z,97763.66
2022-11-09T14:21:13.121Z,97762.63
2022-11-09T14:23:39.600Z,97765.56
2022-11-09T14:26:15.471Z,97770.13
2022-11-09T14:28:41.923Z,97781.81
2022-11-09T14:31:28.483Z,97780.53
2022-11-09T14:34:01.760Z,97787.47
2022-11-09T14:36:29.300Z,97783.47
2022-11-09T14:38:57.411Z,97783.75
2022-11-09T14:41:27.750Z,97797.38
2022-11-09T14:43:55.995Z,97795.50
2022-11-09T14:46:23.580Z,97791.50
2022-11-09T14:48:54.348Z,97796.03
2022-11-09T14:51:21.310Z,97801.66
2022-11-09T14:53:47.818Z,97809.66
2022-11-09T14:56:18.205Z,97801.41
2022-11-09T14:58:44.683Z,97805.66
2022-11-09T15:01:17.176Z,97806.75
2022-11-09T15:03:44.389Z,97806.47
2022-11-09T15:06:15.790Z,97808.06
2022-11-09T15:09:08.885Z,97812.06
2022-11-09T15:11:39.034Z,97811.81
2022-11-09T15:14:32.164Z,97811.03
2022-11-09T15:17:15.246Z,97807.84
2022-11-09T15:19:52.731Z,97819.56
2022-11-09T15:22:43.467Z,97807.59
2022-11-09T15:25:29.741Z,97811.63
2022-11-09T15:28:08.299Z,97811.63
2022-11-09T15:30:45.928Z,97802.00
2022-11-09T15:33:29.624Z,97804.16
2022-11-09T15:36:07.299Z,97820.94
2022-11-09T15:38:35.120Z,97822.31
2022-11-09T15:41:02.071Z,97833.97
2022-11-09T15:43:28.839Z,97827.84
2022-11-09T15:45:55.703Z,97834.53
2022-11-09T15:48:22.939Z,97834.00
2022-11-09T15:50:49.700Z,97835.59
2022-11-09T15:53:16.175Z,97828.16
2022-11-09T15:55:42.668Z,97841.72
2022-11-09T15:58:14.089Z,97858.00
2022-11-09T16:00:40.698Z,97849.22
2022-11-09T16:03:08.149Z,97861.72
2022-11-09T16:05:34.632Z,97865.72
2022-11-09T16:08:01.146Z,97861.75
2022-11-09T16:10:29.324Z,97862.03
2022-11-09T16:12:57.890Z,97871.31
2022-11-09T16:15:24.401Z,97869.75
2022-11-09T16:17:52.637Z,97870.03
2022-11-09T16:20:19.845Z,97871.34
2022-11-09T16:22:46.551Z,97871.59
2022-11-09T16:25:13.273Z,97869.19
2022-11-09T16:27:51.085Z,97883.28
2022-11-09T16:30:19.283Z,97880.34
2022-11-09T16:32:45.786Z,97886.47
2022-11-09T16:35:28.488Z,97901.13
2022-11-09T16:37:55.495Z,97898.19
2022-11-09T16:40:22.086Z,97900.31
2022-11-09T16:42:52.672Z,97907.44
2022-11-09T16:45:19.533Z,97913.28
2022-11-09T16:47:50.305Z,97909.78
2022-11-09T16:50:16.890Z,97911.31
2022-11-09T16:52:43.612Z,97912.09
2022-11-09T16:55:10.465Z,97916.31
2022-11-09T16:57:37.068Z,97916.84
2022-11-09T17:00:07.646Z,97920.03
2022-11-09T17:02:34.474Z,97933.88
2022-11-09T17:05:00.934Z,97932.53
2022-11-09T17:07:27.423Z,97918.91
2022-11-09T17:09:53.915Z,97922.38
2022-11-09T17:12:20.390Z,97929.81
2022-11-09T17:14:46.851Z,97937.03
2022-11-09T17:17:16.960Z,97936.78
2022-11-09T17:19:46.753Z,97939.19
2022-11-09T17:22:14.567Z,97939.19
2022-11-09T17:24:41.125Z,97951.44
2022-11-09T17:27:09.364Z,97949.03
2022-11-09T17:29:37.791Z,97951.38
2022-11-09T17:32:09.116Z,97955.88
2022-11-09T17:34:35.646Z,97954.78
2022-11-09T17:37:04.612Z,97955.28
2022-11-09T17:39:31.797Z,97965.16
2022-11-09T17:41:58.291Z,97965.34
2022-11-09T17:44:26.160Z,97970.09
2022-11-09T17:46:52.668Z,97976.25
2022-11-09T17:49:19.136Z,97972.53
2022-11-09T17:51:45.602Z,97977.88
2022-11-09T17:54:12.102Z,97983.22
2022-11-09T17:56:39.033Z,97995.72
2022-11-09T17:59:05.531Z,97993.84
2022-11-09T18:01:35.242Z,97991.69
2022-11-09T18:04:06.783Z,97998.91
2022-11-09T18:06:33.427Z,98006.91
2022-11-09T18:09:34.541Z,98000.78
2022-11-09T18:11:46.484Z,98001.06
2022-11-09T18:14:13.226Z,98016.28
2022-11-09T18:16:39.682Z,98015.25
2022-11-09T18:19:06.498Z,98013.06
2022-11-09T18:21:33.597Z,98014.44
2022-11-09T18:24:00.085Z,98004.56
2022-11-09T18:26:26.587Z,98010.72
2022-11-09T18:28:55.058Z,98003.59
2022-11-09T18:31:21.520Z,98006.75
2022-11-09T18:33:48.001Z,98006.00
2022-11-09T18:36:15.926Z,98012.94
2022-11-09T18:38:43.060Z,98013.19
2022-11-09T18:41:11.497Z,98019.59
2022-11-09T18:43:38.022Z,98022.25
2022-11-09T18:46:06.164Z,98015.59
2022-11-09T18:48:32.766Z,98026.00
2022-11-09T18:50:59.473Z,98024.75
2022-11-09T18:53:27.950Z,98031.41
2022-11-09T18:56:04.738Z,98023.41
2022-11-09T18:58:32.970Z,98024.75
2022-11-09T19:01:06.959Z,98043.94
2022-11-09T19:03:33.392Z,98024.47
2022-11-09T19:06:03.611Z,98032.19
2022-11-09T19:08:48.722Z,98027.16
2022-11-09T19:11:15.207Z,98027.94
2022-11-09T19:13:41.807Z,98034.09
2022-11-09T19:16:10.649Z,98039.69
2022-11-09T19:18:37.167Z,98043.41
2022-11-09T19:21:03.788Z,98041.50
2022-11-09T19:23:34.424Z,98058.53
2022-11-09T19:26:01.622Z,98046.75
2022-11-09T19:28:28.078Z,98057.16
2022-11-09T19:30:54.533Z,98068.09
2022-11-09T19:33:20.995Z,98074.84
2022-11-09T19:36:08.384Z,98087.38
2022-11-09T19:38:38.134Z,98087.34
2022-11-09T19:41:04.695Z,98091.38
2022-11-09T19:43:31.195Z,98093.25
2022-11-09T19:45:57.680Z,98103.34
2022-11-09T19:48:24.269Z,98095.84
2022-11-09T19:50:51.734Z,98112.09
2022-11-09T19:53:18.526Z,98103.53
2022-11-09T19:55:46.045Z,98106.78
2022-11-09T19:58:13.926Z,98109.69
2022-11-09T20:00:40.408Z,98110.50
2022-11-09T20:03:06.871Z,98123.88
2022-11-09T20:05:36.395Z,98125.47
2022-11-09T20:08:03.636Z,98134.81
2022-11-09T20:10:30.115Z,98144.97
2022-11-09T20:12:56.645Z,98136.13
2022-11-09T20:15:23.163Z,98150.00
2022-11-09T20:20:16.186Z,98138.50
2022-11-09T20:22:42.660Z,98144.41
2022-11-09T20:25:09.440Z,98145.19
2022-11-09T20:27:35.897Z,98157.47
2022-11-09T20:30:02.507Z,98163.59
2022-11-09T20:32:28.990Z,98168.66
2022-11-09T20:34:55.503Z,98159.34
2022-11-09T20:37:22.005Z,98171.59
2022-11-09T20:39:48.459Z,98164.66
2022-11-09T20:42:14.947Z,98170.00
2022-11-09T20:44:41.485Z,98188.69
2022-11-09T20:47:07.947Z,98195.38
2022-11-09T20:49:34.471Z,98189.75
2022-11-09T20:52:00.953Z,98192.19
2022-11-09T20:54:27.420Z,98190.84
2022-11-09T20:56:53.914Z,98187.66
2022-11-09T20:59:20.386Z,98196.47
2022-11-09T21:01:46.954Z,98198.59
2022-11-09T21:04:13.527Z,98199.13
2022-11-09T21:06:40.151Z,98196.72
2022-11-09T21:09:06.628Z,98202.38
2022-11-09T21:11:35.760Z,98198.38
2022-11-09T21:14:02.402Z,98206.94
2022-11-09T21:16:29.139Z,98202.69
2022-11-09T21:18:55.606Z,98225.06
2022-11-09T21:21:23.696Z,98231.75
2022-11-09T21:24:09.104Z,98225.06
2022-11-09T21:26:54.161Z,98229.91
2022-11-09T21:29:40.403Z,98233.09
2022-11-09T21:32:06.909Z,98227.22
2022-11-09T21:34:36.794Z,98242.66
2022-11-09T21:37:03.738Z,98239.50
2022-11-09T21:39:30.200Z,98247.78
2022-11-09T21:41:56.749Z,98256.03
2022-11-09T21:44:23.441Z,98250.16
2022-11-09T21:46:49.918Z,98251.22
2022-11-09T21:49:16.401Z,98254.97
2022-11-09T21:51:42.953Z,98265.34
2022-11-09T21:54:09.821Z,98262.69
2022-11-09T21:56:36.307Z,98276.84
2022-11-09T21:59:02.849Z,98274.16
2022-11-09T22:01:29.381Z,98270.13
2022-11-09T22:03:55.853Z,98275.47
2022-11-09T22:06:22.423Z,98284.28
2022-11-09T22:08:49.301Z,98282.69
2022-11-09T22:11:17.432Z,98282.94
2022-11-09T22:14:02.875Z,98275.47
2022-11-09T22:16:33.210Z,98286.13
2022-11-09T22:19:20.392Z,98282.16
2022-11-09T22:21:46.894Z,98291.75
2022-11-09T22:24:13.379Z,98283.47
2022-11-09T22:26:40.038Z,98288.53
2022-11-09T22:29:06.567Z,98293.34
2022-11-09T22:31:33.127Z,98295.75
2022-11-09T22:33:59.696Z,98292.78
2022-11-09T22:36:26.154Z,98300.25
2022-11-09T22:38:52.620Z,98303.44
2022-11-09T22:41:19.542Z,98304.81
2022-11-09T22:43:46.036Z,98305.06
2022-11-09T22:46:14.186Z,98305.88
2022-11-09T22:48:41.211Z,98312.25
2022-11-09T22:51:07.906Z,98311.44
2022-11-09T22:53:34.413Z,98314.13
2022-11-09T22:56:01.866Z,98318.91
2022-11-09T22:58:28.516Z,98332.25
2022-11-09T23:00:54.972Z,98323.44
2022-11-09T23:03:21.699Z,98333.56
2022-11-09T23:05:48.838Z,98339.69
2022-11-09T23:08:15.302Z,98348.75
2022-11-09T23:10:41.859Z,98345.56
2022-11-09T23:13:08.311Z,98361.28
2022-11-09T23:15:34.758Z,98361.56
2022-11-09T23:18:19.764Z,98363.66
2022-11-09T23:20:46.254Z,98364.75
2022-11-09T23:23:12.706Z,98358.88
2022-11-09T23:25:54.245Z,98372.44
2022-11-09T23:28:20.723Z,98376.97
2022-11-09T23:30:47.213Z,98375.66
2022-11-09T23:33:13.702Z,98382.28
2022-11-09T23:35:40.183Z,98381.75
2022-11-09T23:38:06.674Z,98383.63
2022-11-09T23:40:34.327Z,98390.00
2022-11-09T23:43:08.077Z,98385.19
2022-11-09T23:45:35.141Z,98389.97
2022-11-09T23:48:01.725Z,98385.72
2022-11-09T23:50:28.399Z,98398.22
2022-11-09T23:52:58.337Z,98396.03
2022-11-09T23:55:25.607Z,98397.69
2022-11-09T23:57:52.100Z,98411.50
